createdAt,value
2023-08-03T00:00:57.738Z,19.06
2023-08-03T00:03:24.363Z,18.95
2023-08-03T00:05:50.917Z,18.90
2023-08-03T00:08:17.271Z,18.89
2023-08-03T00:10:43.679Z,18.87
2023-08-03T00:13:10.072Z,18.84
2023-08-03T00:15:36.505Z,18.80
2023-08-03T00:18:03.096Z,18.80
2023-08-03T00:20:29.666Z,18.77
2023-08-03T00:22:56.476Z,18.75
2023-08-03T00:25:23.956Z,18.72
2023-08-03T00:27:50.322Z,18.75
2023-08-03T00:30:17.010Z,18.75
2023-08-03T00:32:43.415Z,18.73
2023-08-03T00:35:10.258Z,18.77
2023-08-03T00:37:39.823Z,18.76
2023-08-03T00:40:07.663Z,18.78
2023-08-03T00:42:34.259Z,18.78
2023-08-03T00:45:00.686Z,18.88
2023-08-03T00:47:27.291Z,18.86
2023-08-03T00:49:53.731Z,18.87
2023-08-03T00:52:21.264Z,18.89
2023-08-03T00:54:47.743Z,18.96
2023-08-03T00:57:14.120Z,18.92
2023-08-03T00:59:40.525Z,18.88
2023-08-03T01:02:32.928Z,18.83
2023-08-03T01:04:59.411Z,18.79
2023-08-03T01:07:26.706Z,18.85
2023-08-03T01:09:53.137Z,18.86
2023-08-03T01:12:19.881Z,18.90
2023-08-03T01:14:46.599Z,18.98
2023-08-03T01:17:13.472Z,19.09
2023-08-03T01:19:39.883Z,19.11
2023-08-03T01:22:10.482Z,19.17
2023-08-03T01:24:36.948Z,19.20
2023-08-03T01:27:04.288Z,19.25
2023-08-03T01:29:30.630Z,19.30
2023-08-03T01:31:59.194Z,19.28
2023-08-03T01:34:26.242Z,19.27
2023-08-03T01:36:54.201Z,19.32
2023-08-03T01:39:22.168Z,19.33
2023-08-03T01:41:48.499Z,19.36
2023-08-03T01:44:28.361Z,19.38
2023-08-03T01:46:56.432Z,19.36
2023-08-03T01:49:24.675Z,19.36
2023-08-03T01:51:51.559Z,19.32
2023-08-03T01:54:17.983Z,19.34
2023-08-03T01:56:44.624Z,19.32
2023-08-03T01:59:11.806Z,19.28
2023-08-03T02:01:38.946Z,19.28
2023-08-03T02:04:05.505Z,19.24
2023-08-03T02:06:32.159Z,19.18
2023-08-03T02:08:58.618Z,19.13
2023-08-03T02:11:26.280Z,19.13
2023-08-03T02:13:52.730Z,19.05
2023-08-03T02:16:25.254Z,19.04
2023-08-03T02:18:52.381Z,18.99
2023-08-03T02:21:18.904Z,19.00
2023-08-03T02:23:45.258Z,19.02
2023-08-03T02:26:11.664Z,18.94
2023-08-03T02:28:38.084Z,18.89
2023-08-03T02:31:04.567Z,18.88
2023-08-03T02:33:30.989Z,18.89
2023-08-03T02:35:57.409Z,18.81
2023-08-03T02:38:23.802Z,18.82
2023-08-03T02:40:50.128Z,18.84
2023-08-03T02:43:16.610Z,18.82
2023-08-03T02:45:43.001Z,18.88
2023-08-03T02:48:09.366Z,18.90
2023-08-03T02:50:35.869Z,18.88
2023-08-03T02:53:02.230Z,18.86
2023-08-03T02:55:28.623Z,18.86
2023-08-03T02:57:55.130Z,18.85
2023-08-03T03:00:22.773Z,18.82
2023-08-03T03:02:49.238Z,18.83
2023-08-03T03:05:16.011Z,18.85
2023-08-03T03:07:42.513Z,18.86
2023-08-03T03:10:09.238Z,18.83
2023-08-03T03:12:35.630Z,18.86
2023-08-03T03:15:02.141Z,18.82
2023-08-03T03:17:28.580Z,18.80
2023-08-03T03:19:55.303Z,18.83
2023-08-03T03:22:21.649Z,18.81
2023-08-03T03:24:48.120Z,18.78
2023-08-03T03:27:14.562Z,18.80
2023-08-03T03:29:40.945Z,18.86
2023-08-03T03:32:08.106Z,18.82
2023-08-03T03:34:34.645Z,18.83
2023-08-03T03:37:01.003Z,18.78
2023-08-03T03:39:27.361Z,18.66
2023-08-03T03:41:53.864Z,18.64
2023-08-03T03:44:20.249Z,18.53
2023-08-03T03:46:46.616Z,18.56
2023-08-03T03:49:12.981Z,18.55
2023-08-03T03:51:39.298Z,18.54
2023-08-03T03:54:05.665Z,18.51
2023-08-03T03:56:32.090Z,18.51
2023-08-03T03:58:58.516Z,18.55
2023-08-03T04:01:25.056Z,18.59
2023-08-03T04:03:51.614Z,18.63
2023-08-03T04:06:18.030Z,18.67
2023-08-03T04:08:44.403Z,18.63
2023-08-03T04:11:10.982Z,18.63
2023-08-03T04:13:37.428Z,18.57
2023-08-03T04:16:04.135Z,18.43
2023-08-03T04:18:30.564Z,18.35
2023-08-03T04:20:56.963Z,18.32
2023-08-03T04:23:23.301Z,18.33
2023-08-03T04:25:49.696Z,18.33
2023-08-03T04:28:16.113Z,18.18
2023-08-03T04:30:42.543Z,18.14
2023-08-03T04:33:08.937Z,18.07
2023-08-03T04:35:35.307Z,18.06
2023-08-03T04:38:01.664Z,18.00
2023-08-03T04:40:28.148Z,17.92
2023-08-03T04:42:54.587Z,17.86
2023-08-03T04:45:21.122Z,17.84
2023-08-03T04:47:47.612Z,17.89
2023-08-03T04:50:14.196Z,17.90
2023-08-03T04:52:40.538Z,17.90
2023-08-03T04:55:07.368Z,17.89
2023-08-03T04:57:33.734Z,17.89
2023-08-03T05:00:00.199Z,17.87
2023-08-03T05:02:26.760Z,17.87
2023-08-03T05:04:53.224Z,17.87
2023-08-03T05:07:19.640Z,17.96
2023-08-03T05:09:46.006Z,17.99
2023-08-03T05:12:12.446Z,17.98
2023-08-03T05:14:38.922Z,18.05
2023-08-03T05:17:05.798Z,18.04
2023-08-03T05:19:32.175Z,18.13
2023-08-03T05:21:59.623Z,18.13
2023-08-03T05:24:26.646Z,18.14
2023-08-03T05:26:52.995Z,18.14
2023-08-03T05:29:19.765Z,18.18
2023-08-03T05:31:49.419Z,18.20
2023-08-03T05:34:16.501Z,18.19
2023-08-03T05:36:42.943Z,18.24
2023-08-03T05:39:09.596Z,18.26
2023-08-03T05:41:36.645Z,18.25
2023-08-03T05:44:03.574Z,18.22
2023-08-03T05:46:33.759Z,18.20
2023-08-03T05:49:00.217Z,18.13
2023-08-03T05:51:28.378Z,18.19
2023-08-03T05:53:56.188Z,18.35
2023-08-03T05:56:24.099Z,18.42
2023-08-03T05:58:51.716Z,18.39
2023-08-03T06:01:22.317Z,18.46
2023-08-03T06:03:51.386Z,18.43
2023-08-03T06:06:22.553Z,18.48
2023-08-03T06:08:51.807Z,18.50
2023-08-03T06:11:26.353Z,18.45
2023-08-03T06:13:54.120Z,18.45
2023-08-03T06:16:22.677Z,18.46
2023-08-03T06:18:51.569Z,18.40
2023-08-03T06:21:18.685Z,18.41
2023-08-03T06:23:50.119Z,18.36
2023-08-03T06:26:18.991Z,18.28
2023-08-03T06:28:46.439Z,18.28
2023-08-03T06:31:16.918Z,18.35
2023-08-03T06:33:45.069Z,18.37
2023-08-03T06:36:13.967Z,18.36
2023-08-03T06:38:41.296Z,18.39
2023-08-03T06:41:07.829Z,18.40
2023-08-03T06:43:34.489Z,18.41
2023-08-03T06:46:00.889Z,18.40
2023-08-03T06:48:27.521Z,18.37
2023-08-03T06:50:55.141Z,18.37
2023-08-03T06:53:22.466Z,18.38
2023-08-03T06:55:51.449Z,18.35
2023-08-03T06:58:19.000Z,18.37
2023-08-03T07:00:46.465Z,18.31
2023-08-03T07:03:13.810Z,18.27
2023-08-03T07:05:41.194Z,18.23
2023-08-03T07:08:08.318Z,18.19
2023-08-03T07:10:38.174Z,18.16
2023-08-03T07:13:05.290Z,18.18
2023-08-03T07:15:35.645Z,18.10
2023-08-03T07:18:07.008Z,18.03
2023-08-03T07:20:37.272Z,18.01
2023-08-03T07:23:04.960Z,17.89
2023-08-03T07:25:33.378Z,17.90
2023-08-03T07:28:00.649Z,17.84
2023-08-03T07:30:27.188Z,17.90
2023-08-03T07:32:54.346Z,17.88
2023-08-03T07:35:20.837Z,17.86
2023-08-03T07:37:47.195Z,17.84
2023-08-03T07:40:13.641Z,17.82
2023-08-03T07:42:40.052Z,17.80
2023-08-03T07:45:07.033Z,17.83
2023-08-03T07:47:33.455Z,17.86
2023-08-03T07:50:01.004Z,17.91
2023-08-03T07:52:27.491Z,17.94
2023-08-03T07:54:55.898Z,17.99
2023-08-03T07:57:22.607Z,17.98
2023-08-03T07:59:50.101Z,18.02
2023-08-03T08:02:16.798Z,18.08
2023-08-03T08:04:43.486Z,18.06
2023-08-03T08:07:10.108Z,18.09
2023-08-03T08:09:36.485Z,18.13
2023-08-03T08:12:05.462Z,18.16
2023-08-03T08:14:31.808Z,18.24
2023-08-03T08:17:11.097Z,18.22
2023-08-03T08:19:39.177Z,18.30
2023-08-03T08:22:16.536Z,18.31
2023-08-03T08:24:45.098Z,18.28
2023-08-03T08:27:11.970Z,18.28
2023-08-03T08:29:38.745Z,18.29
2023-08-03T08:32:06.103Z,18.34
2023-08-03T08:34:32.832Z,18.39
2023-08-03T08:36:59.569Z,18.39
2023-08-03T08:39:26.509Z,18.37
2023-08-03T08:41:53.141Z,18.45
2023-08-03T08:44:19.678Z,18.44
2023-08-03T08:46:46.626Z,18.52
2023-08-03T09:01:49.106Z,18.82
2023-08-03T09:06:46.944Z,18.87
2023-08-03T09:09:13.573Z,18.88
2023-08-03T09:11:41.965Z,18.82
2023-08-03T09:14:10.023Z,18.78
2023-08-03T09:16:38.604Z,18.68
2023-08-03T09:19:05.246Z,18.71
2023-08-03T09:34:14.749Z,19.09
2023-08-03T09:37:09.579Z,19.14
2023-08-03T09:39:35.927Z,19.16
2023-08-03T09:42:06.762Z,19.15
2023-08-03T09:44:37.383Z,19.18
2023-08-03T09:47:04.809Z,19.14
2023-08-03T09:49:33.426Z,19.14
2023-08-03T09:52:06.624Z,19.12
2023-08-03T09:57:30.025Z,19.16
2023-08-03T10:00:04.952Z,19.13
2023-08-03T10:02:40.211Z,19.09
2023-08-03T10:05:10.858Z,19.13
2023-08-03T10:07:43.555Z,19.12
2023-08-03T10:10:14.591Z,19.19
2023-08-03T10:12:45.515Z,19.26
2023-08-03T10:15:13.388Z,19.29
2023-08-03T10:17:40.846Z,19.30
2023-08-03T10:20:10.683Z,19.22
2023-08-03T10:22:37.692Z,19.23
2023-08-03T10:25:20.443Z,19.27
2023-08-03T10:28:12.539Z,19.28
2023-08-03T10:31:16.255Z,19.26
2023-08-03T10:33:47.757Z,19.19
2023-08-03T10:36:30.172Z,19.26
2023-08-03T10:39:02.632Z,19.32
2023-08-03T10:41:36.517Z,19.39
2023-08-03T10:44:06.021Z,19.46
2023-08-03T10:46:34.380Z,19.51
2023-08-03T10:49:24.409Z,19.49
2023-08-03T10:51:56.649Z,19.55
2023-08-03T10:54:30.581Z,19.68
2023-08-03T10:57:06.824Z,19.71
2023-08-03T10:59:46.985Z,19.77
2023-08-03T11:02:20.257Z,19.84
2023-08-03T11:04:47.034Z,19.90
2023-08-03T11:07:17.350Z,19.90
2023-08-03T11:09:46.654Z,19.89
2023-08-03T11:12:15.129Z,19.87
2023-08-03T11:14:42.632Z,19.85
2023-08-03T11:17:09.095Z,19.81
2023-08-03T11:19:39.400Z,19.78
2023-08-03T11:22:06.622Z,19.75
2023-08-03T11:24:33.460Z,19.76
2023-08-03T11:27:00.490Z,19.80
2023-08-03T11:29:27.323Z,19.90
2023-08-03T11:31:53.891Z,19.98
2023-08-03T11:34:21.334Z,20.18
2023-08-03T11:36:49.247Z,20.38
2023-08-03T11:39:15.874Z,20.62
2023-08-03T11:41:43.780Z,20.83
2023-08-03T11:44:10.286Z,20.96
2023-08-03T11:46:37.036Z,21.03
2023-08-03T11:49:04.094Z,21.06
2023-08-03T11:51:32.126Z,21.10
2023-08-03T11:54:02.256Z,21.04
2023-08-03T11:56:41.966Z,20.90
2023-08-03T11:59:10.573Z,20.88
2023-08-03T12:01:45.817Z,20.92
2023-08-03T12:04:15.327Z,20.97
2023-08-03T12:09:26.560Z,21.05
2023-08-03T12:12:11.106Z,21.11
2023-08-03T12:14:37.804Z,21.09
2023-08-03T12:17:05.560Z,21.01
2023-08-03T12:19:35.229Z,20.94
2023-08-03T12:22:03.609Z,20.90
2023-08-03T12:24:30.513Z,20.89
2023-08-03T12:27:04.482Z,20.90
2023-08-03T12:29:40.611Z,20.93
2023-08-03T12:32:09.265Z,20.95
2023-08-03T12:34:35.853Z,21.02
2023-08-03T12:37:02.408Z,21.12
2023-08-03T12:39:29.597Z,21.33
2023-08-03T12:41:56.069Z,21.41
2023-08-03T12:44:22.486Z,21.41
2023-08-03T12:46:49.742Z,21.34
2023-08-03T12:49:19.188Z,21.34
2023-08-03T12:51:45.690Z,21.35
2023-08-03T12:54:12.149Z,21.36
2023-08-03T12:56:39.735Z,21.43
2023-08-03T12:59:06.773Z,21.43
2023-08-03T13:01:34.327Z,21.35
2023-08-03T13:04:01.438Z,21.26
2023-08-03T13:06:28.628Z,21.20
2023-08-03T13:08:55.482Z,21.19
2023-08-03T13:11:22.230Z,21.17
2023-08-03T13:13:49.058Z,21.22
2023-08-03T13:16:16.301Z,21.17
2023-08-03T13:21:13.006Z,21.00
2023-08-03T13:23:40.396Z,21.00
2023-08-03T13:26:07.860Z,20.99
2023-08-03T13:28:34.377Z,20.92
2023-08-03T13:31:00.954Z,20.90
2023-08-03T13:33:27.448Z,20.94
2023-08-03T13:35:53.788Z,20.95
2023-08-03T13:38:22.269Z,20.86
2023-08-03T13:40:49.174Z,20.94
2023-08-03T13:43:15.598Z,21.06
2023-08-03T13:45:43.488Z,21.04
2023-08-03T13:48:12.229Z,20.98
2023-08-03T13:50:38.727Z,20.95
2023-08-03T13:53:05.195Z,21.04
2023-08-03T13:55:31.553Z,21.14
2023-08-03T14:00:27.581Z,21.34
2023-08-03T14:02:54.669Z,21.42
2023-08-03T14:07:51.197Z,21.39
2023-08-03T14:22:47.552Z,20.87
2023-08-03T14:30:20.273Z,20.42
2023-08-03T14:32:47.962Z,20.46
2023-08-03T14:37:44.356Z,20.26
2023-08-03T14:40:11.262Z,20.23
2023-08-03T14:42:37.836Z,20.26
2023-08-03T14:45:05.079Z,20.31
2023-08-03T14:47:31.562Z,20.46
2023-08-03T14:52:27.904Z,20.41
2023-08-03T14:55:03.682Z,20.44
2023-08-03T14:57:30.190Z,20.40
2023-08-03T14:59:56.612Z,20.44
2023-08-03T15:02:23.245Z,20.46
2023-08-03T15:04:49.910Z,20.47
2023-08-03T15:07:16.413Z,20.43
2023-08-03T15:09:43.248Z,20.45
2023-08-03T15:12:10.059Z,20.48
2023-08-03T15:14:36.623Z,20.43
2023-08-03T15:17:22.502Z,20.34
2023-08-03T15:19:49.901Z,20.25
2023-08-03T15:22:16.727Z,20.27
2023-08-03T15:24:48.522Z,20.25
2023-08-03T15:34:51.585Z,20.05
2023-08-03T15:37:21.052Z,20.03
2023-08-03T15:39:49.490Z,20.04
2023-08-03T15:42:18.482Z,19.96
2023-08-03T15:44:49.265Z,19.92
2023-08-03T15:47:43.171Z,19.88
2023-08-03T15:50:06.749Z,19.91
2023-08-03T15:52:57.795Z,19.99
2023-08-03T15:57:52.388Z,19.96
2023-08-03T16:00:19.982Z,19.95
2023-08-03T16:02:46.568Z,19.90
2023-08-03T16:05:12.961Z,19.87
2023-08-03T16:07:39.303Z,19.79
2023-08-03T16:10:06.260Z,19.72
2023-08-03T16:12:32.700Z,19.78
2023-08-03T16:14:59.187Z,19.64
2023-08-03T16:17:25.713Z,19.59
2023-08-03T16:19:52.149Z,19.56
2023-08-03T16:22:18.585Z,19.60
2023-08-03T16:24:44.996Z,19.62
2023-08-03T16:27:11.557Z,19.67
2023-08-03T16:29:38.070Z,19.80
2023-08-03T16:32:15.735Z,19.84
2023-08-03T16:37:12.699Z,19.89
2023-08-03T16:39:39.115Z,19.93
2023-08-03T16:42:06.052Z,19.87
2023-08-03T16:44:32.401Z,19.85
2023-08-03T16:46:58.784Z,19.75
2023-08-03T16:49:25.271Z,19.83
2023-08-03T16:51:54.039Z,19.80
2023-08-03T16:54:20.519Z,19.75
2023-08-03T16:56:47.148Z,19.72
2023-08-03T16:59:13.738Z,19.77
2023-08-03T17:01:40.221Z,19.76
2023-08-03T17:04:06.748Z,19.73
2023-08-03T17:06:36.500Z,19.69
2023-08-03T17:09:03.722Z,19.60
2023-08-03T17:11:31.178Z,19.60
2023-08-03T17:13:57.697Z,19.48
2023-08-03T17:16:24.206Z,19.46
2023-08-03T17:18:50.797Z,19.48
2023-08-03T17:21:17.989Z,19.51
2023-08-03T17:23:44.487Z,19.49
2023-08-03T17:26:10.912Z,19.40
2023-08-03T17:28:37.275Z,19.43
2023-08-03T17:31:04.768Z,19.47
2023-08-03T17:33:31.651Z,19.40
2023-08-03T17:35:58.040Z,19.34
2023-08-03T17:38:24.513Z,19.35
2023-08-03T17:40:55.756Z,19.30
2023-08-03T17:43:22.361Z,19.31
2023-08-03T17:45:48.961Z,19.31
2023-08-03T17:48:15.588Z,19.34
2023-08-03T17:50:45.510Z,19.31
2023-08-03T17:53:11.863Z,19.34
2023-08-03T17:55:38.475Z,19.34
2023-08-03T17:58:05.157Z,19.30
2023-08-03T18:00:31.744Z,19.30
2023-08-03T18:02:58.219Z,19.25
2023-08-03T18:05:24.915Z,19.26
2023-08-03T18:07:53.169Z,19.21
2023-08-03T18:10:19.605Z,19.13
2023-08-03T18:12:46.205Z,19.11
2023-08-03T18:15:15.721Z,19.10
2023-08-03T18:17:43.223Z,19.02
2023-08-03T18:20:10.458Z,19.06
2023-08-03T18:22:36.842Z,19.02
2023-08-03T18:25:03.735Z,18.98
2023-08-03T18:27:30.269Z,18.87
2023-08-03T18:29:56.646Z,18.71
2023-08-03T18:32:23.128Z,18.73
2023-08-03T18:34:50.102Z,18.66
2023-08-03T18:37:16.987Z,18.65
2023-08-03T18:39:44.195Z,18.68
2023-08-03T18:42:10.715Z,18.70
2023-08-03T18:44:37.869Z,18.68
2023-08-03T18:47:04.713Z,18.68
2023-08-03T18:49:31.169Z,18.65
2023-08-03T18:51:57.528Z,18.65
2023-08-03T18:54:24.013Z,18.62
2023-08-03T18:56:54.380Z,18.59
2023-08-03T18:59:21.591Z,18.60
2023-08-03T19:01:48.275Z,18.58
2023-08-03T19:04:14.712Z,18.53
2023-08-03T19:06:41.070Z,18.60
2023-08-03T19:09:07.513Z,18.59
2023-08-03T19:11:33.907Z,18.57
2023-08-03T19:14:00.370Z,18.58
2023-08-03T19:16:28.682Z,18.55
2023-08-03T19:18:55.664Z,18.53
2023-08-03T19:21:23.313Z,18.52
2023-08-03T19:23:49.800Z,18.53
2023-08-03T19:26:18.942Z,18.42
2023-08-03T19:28:46.684Z,18.38
2023-08-03T19:31:14.741Z,18.38
2023-08-03T19:33:41.410Z,18.32
2023-08-03T19:36:07.790Z,18.29
2023-08-03T19:38:34.447Z,18.27
2023-08-03T19:41:00.795Z,18.25
2023-08-03T19:43:27.222Z,18.20
2023-08-03T19:45:53.629Z,18.24
2023-08-03T19:48:20.098Z,18.24
2023-08-03T19:56:35.816Z,18.22
2023-08-03T20:11:06.485Z,18.15
2023-08-03T20:13:32.893Z,18.13
2023-08-03T20:15:59.395Z,18.12
2023-08-03T20:18:25.878Z,18.11
2023-08-03T20:20:52.335Z,18.12
2023-08-03T20:23:18.859Z,18.01
2023-08-03T20:25:45.269Z,18.02
2023-08-03T20:28:13.093Z,17.99
2023-08-03T20:30:51.467Z,18.00
2023-08-03T20:33:23.310Z,18.05
2023-08-03T20:40:56.360Z,18.06
2023-08-03T20:45:52.311Z,18.08
2023-08-03T20:53:17.512Z,18.03
2023-08-03T20:55:49.826Z,18.10
2023-08-03T20:58:16.861Z,18.10
2023-08-03T21:00:43.277Z,18.09
2023-08-03T21:03:09.820Z,18.04
2023-08-03T21:05:44.534Z,18.03
2023-08-03T21:08:13.263Z,18.01
2023-08-03T21:13:09.974Z,17.94
2023-08-03T21:15:36.642Z,17.95
2023-08-03T21:18:03.337Z,18.01
2023-08-03T21:20:33.164Z,18.00
2023-08-03T21:22:59.877Z,17.97
2023-08-03T21:25:26.432Z,17.97
2023-08-03T21:27:52.974Z,18.01
2023-08-03T21:30:19.532Z,18.03
2023-08-03T21:32:46.027Z,18.01
2023-08-03T21:35:12.433Z,17.98
2023-08-03T21:37:39.443Z,18.00
2023-08-03T21:40:07.141Z,17.94
2023-08-03T21:42:33.779Z,18.00
2023-08-03T21:45:00.466Z,17.98
2023-08-03T21:47:29.962Z,17.96
2023-08-03T21:49:57.878Z,17.96
2023-08-03T21:52:24.735Z,17.95
2023-08-03T21:54:51.268Z,18.00
2023-08-03T21:57:17.694Z,17.95
2023-08-03T21:59:44.149Z,17.92
2023-08-03T22:02:10.620Z,17.92
2023-08-03T22:04:37.077Z,17.91
2023-08-03T22:07:03.664Z,17.93
2023-08-03T22:09:30.033Z,17.91
2023-08-03T22:11:56.551Z,17.87
2023-08-03T22:14:23.099Z,17.90
2023-08-03T22:16:49.513Z,17.88
2023-08-03T22:19:15.944Z,17.86
2023-08-03T22:21:42.407Z,17.86
2023-08-03T22:24:09.109Z,17.87
2023-08-03T22:26:35.657Z,17.89
2023-08-03T22:29:08.042Z,17.85
2023-08-03T22:31:34.461Z,17.87
2023-08-03T22:34:00.843Z,17.94
2023-08-03T22:36:27.371Z,17.91
2023-08-03T22:38:53.907Z,17.87
2023-08-03T22:41:20.300Z,17.87
2023-08-03T22:43:46.727Z,17.86
2023-08-03T22:46:20.591Z,17.82
2023-08-03T22:48:47.875Z,17.85
2023-08-03T22:51:18.429Z,17.86
2023-08-03T22:53:46.533Z,17.85
2023-08-03T22:56:13.608Z,17.86
2023-08-03T22:58:40.225Z,17.80
2023-08-03T23:01:33.237Z,17.76
2023-08-03T23:03:59.738Z,17.79
2023-08-03T23:06:26.910Z,17.77
2023-08-03T23:08:53.393Z,17.77
2023-08-03T23:11:19.854Z,17.77
2023-08-03T23:13:46.486Z,17.70
2023-08-03T23:16:20.347Z,17.71
2023-08-03T23:18:47.480Z,17.72
2023-08-03T23:21:13.847Z,17.68
2023-08-03T23:23:40.512Z,17.63
2023-08-03T23:26:09.695Z,17.59
2023-08-03T23:28:37.238Z,17.54
2023-08-03T23:31:04.587Z,17.52
2023-08-03T23:33:31.578Z,17.55
2023-08-03T23:35:58.399Z,17.54
2023-08-03T23:38:24.953Z,17.53
2023-08-03T23:40:51.358Z,17.55
2023-08-03T23:43:17.866Z,17.53
2023-08-03T23:45:44.407Z,17.55
2023-08-03T23:48:10.807Z,17.49
2023-08-03T23:50:37.191Z,17.46
2023-08-03T23:53:03.732Z,17.46
2023-08-03T23:55:30.178Z,17.46
2023-08-03T23:57:56.564Z,17.46
